Terminal Aerodrome Forecast
Issued by NWS Mt. Holly, NJ

Home | Current Version | Previous Version | Text Only | Print | Product List | Glossary On
Versions: 1 2 3 4 5 6 7 8 9 10 11 12 13 14 15 16 17 18 19 20 21 22 23 24 25 26 27
000
FTUS41 KPHI 261700 RRA
TAFABE
TAF
KABE 261743Z 2618/2718 05015G23KT 3SM -SN BKN015 OVC025
      TEMPO 2618/2622 1SM -SN OVC012
     FM262200 04016G28KT 1SM -SN OVC006
     FM270200 02018G28KT 1/2SM SN OVC004
     FM271500 33017G27KT 3SM -SN BLSN OVC010=

USA.gov is the U.S. government's official web portal to all federal, state and local government web resources and services.